createdAt,value
2019-03-04T00:02:02.815Z,11.30
2019-03-04T00:04:31.250Z,11.40
2019-03-04T00:06:59.706Z,11.40
2019-03-04T00:09:28.122Z,11.40
2019-03-04T00:11:56.568Z,11.40
2019-03-04T00:14:24.979Z,11.40
2019-03-04T00:16:53.474Z,11.50
2019-03-04T00:19:21.930Z,11.40
2019-03-04T00:21:50.459Z,11.50
2019-03-04T00:24:18.904Z,11.60
2019-03-04T00:26:47.342Z,11.60
2019-03-04T00:29:15.767Z,11.60
2019-03-04T00:31:44.282Z,11.60
2019-03-04T00:34:12.699Z,11.60
2019-03-04T00:36:41.147Z,11.70
2019-03-04T00:39:11.112Z,11.70
2019-03-04T00:41:39.604Z,11.70
2019-03-04T00:44:08.035Z,11.70
2019-03-04T00:46:36.468Z,11.70
2019-03-04T00:49:04.890Z,11.70
2019-03-04T00:51:33.338Z,11.80
2019-03-04T00:54:01.795Z,11.70
2019-03-04T00:56:30.203Z,11.70
2019-03-04T00:58:58.636Z,11.80
2019-03-04T01:01:27.059Z,11.70
2019-03-04T01:03:55.472Z,11.60
2019-03-04T01:06:23.907Z,11.60
2019-03-04T01:08:52.334Z,11.60
2019-03-04T01:11:20.818Z,11.60
2019-03-04T01:13:49.367Z,11.60
2019-03-04T01:16:17.848Z,11.60
2019-03-04T01:18:46.267Z,11.60
2019-03-04T01:21:14.698Z,11.60
2019-03-04T01:23:43.119Z,11.60
2019-03-04T01:26:11.831Z,11.70
2019-03-04T01:28:40.247Z,11.70
2019-03-04T01:31:08.666Z,11.70
2019-03-04T01:33:37.107Z,11.70
2019-03-04T01:36:05.525Z,11.70
2019-03-04T01:38:33.938Z,11.70
2019-03-04T01:41:02.369Z,11.60
2019-03-04T01:43:31.739Z,11.60
2019-03-04T01:46:00.177Z,11.60
2019-03-04T01:48:28.589Z,11.60
2019-03-04T01:50:57.036Z,11.60
2019-03-04T01:53:25.454Z,11.70
2019-03-04T01:55:54.058Z,11.70
2019-03-04T01:58:22.512Z,11.70
2019-03-04T02:00:50.921Z,11.70
2019-03-04T02:03:19.387Z,11.80
2019-03-04T02:05:47.862Z,11.70
2019-03-04T02:08:16.452Z,11.60
2019-03-04T02:10:44.915Z,11.60
2019-03-04T02:13:13.345Z,11.70
2019-03-04T02:15:41.776Z,11.80
2019-03-04T02:18:10.190Z,11.80
2019-03-04T02:20:38.643Z,11.90
2019-03-04T02:23:07.114Z,12.00
2019-03-04T02:25:44.567Z,12.00
2019-03-04T02:28:12.979Z,12.00
2019-03-04T02:30:41.465Z,12.00
2019-03-04T02:33:09.984Z,12.00
2019-03-04T02:35:38.403Z,12.00
2019-03-04T02:38:06.850Z,12.00
2019-03-04T02:40:35.285Z,12.00
2019-03-04T02:43:03.719Z,12.00
2019-03-04T02:45:32.135Z,12.00
2019-03-04T02:48:00.619Z,12.00
2019-03-04T02:50:29.059Z,11.90
2019-03-04T02:52:57.498Z,11.90
2019-03-04T02:55:26.003Z,11.90
2019-03-04T02:57:54.419Z,11.90
2019-03-04T03:00:22.911Z,11.90
2019-03-04T03:02:51.353Z,11.80
2019-03-04T03:05:19.862Z,11.80
2019-03-04T03:07:48.294Z,11.90
2019-03-04T03:10:16.974Z,11.70
2019-03-04T03:12:45.411Z,11.70
2019-03-04T03:15:18.776Z,11.60
2019-03-04T03:17:47.182Z,11.60
2019-03-04T03:20:16.561Z,11.60
2019-03-04T03:22:45.044Z,11.70
2019-03-04T03:25:14.803Z,11.60
2019-03-04T03:27:43.289Z,11.60
2019-03-04T03:30:16.865Z,11.70
2019-03-04T03:32:45.299Z,11.60
2019-03-04T03:35:13.913Z,11.60
2019-03-04T03:37:42.387Z,11.70
2019-03-04T03:40:15.884Z,11.70
2019-03-04T03:42:44.300Z,11.80
2019-03-04T03:45:12.957Z,11.80
2019-03-04T03:47:41.454Z,11.80
2019-03-04T03:50:16.806Z,11.90
2019-03-04T03:52:46.444Z,11.90
2019-03-04T03:55:16.642Z,11.90
2019-03-04T03:57:45.254Z,11.90
2019-03-04T04:00:24.202Z,11.90
2019-03-04T04:02:52.710Z,11.90
2019-03-04T04:05:21.295Z,12.00
2019-03-04T04:07:49.765Z,11.90
2019-03-04T04:10:20.515Z,11.90
2019-03-04T04:12:49.025Z,12.00
2019-03-04T04:15:19.541Z,12.10
2019-03-04T04:17:48.102Z,12.10
2019-03-04T04:20:16.725Z,12.20
2019-03-04T04:22:45.211Z,12.10
2019-03-04T04:25:14.546Z,12.10
2019-03-04T04:27:43.061Z,12.10
2019-03-04T04:30:15.627Z,12.00
2019-03-04T04:32:44.126Z,12.00
2019-03-04T04:35:12.555Z,12.00
2019-03-04T04:37:40.990Z,12.00
2019-03-04T04:40:12.020Z,12.10
2019-03-04T04:42:40.495Z,12.10
2019-03-04T04:45:09.591Z,12.10
2019-03-04T04:47:38.746Z,12.00
2019-03-04T04:50:15.595Z,12.10
2019-03-04T04:52:44.042Z,12.20
2019-03-04T04:55:12.493Z,12.10
2019-03-04T04:57:40.934Z,12.20
2019-03-04T05:00:12.535Z,12.30
2019-03-04T05:02:40.951Z,12.20
2019-03-04T05:05:09.460Z,12.20
2019-03-04T05:07:37.982Z,12.20
2019-03-04T05:10:09.819Z,12.20
2019-03-04T05:12:38.258Z,12.20
2019-03-04T05:15:09.623Z,12.20
2019-03-04T05:17:39.622Z,12.20
2019-03-04T05:20:11.503Z,12.20
2019-03-04T05:22:40.090Z,12.20
2019-03-04T05:25:09.075Z,12.20
2019-03-04T05:27:37.495Z,12.20
2019-03-04T05:30:15.101Z,12.20
2019-03-04T05:32:43.514Z,12.10
2019-03-04T05:35:13.005Z,12.20
2019-03-04T05:37:41.423Z,12.20
2019-03-04T05:40:18.803Z,12.10
2019-03-04T05:42:47.304Z,12.00
2019-03-04T05:45:17.293Z,12.10
2019-03-04T05:47:45.800Z,12.00
2019-03-04T05:50:18.902Z,12.00
2019-03-04T05:52:47.347Z,11.90
2019-03-04T05:55:16.208Z,12.00
2019-03-04T05:57:44.662Z,12.00
2019-03-04T06:00:19.738Z,11.90
2019-03-04T06:02:49.117Z,12.00
2019-03-04T06:05:17.592Z,12.00
2019-03-04T06:07:47.670Z,11.90
2019-03-04T06:10:16.159Z,11.80
2019-03-04T06:12:44.673Z,11.90
2019-03-04T06:15:17.833Z,11.90
2019-03-04T06:17:46.263Z,12.00
2019-03-04T06:20:17.389Z,12.00
2019-03-04T06:22:45.846Z,11.90
2019-03-04T06:25:16.813Z,11.90
2019-03-04T06:27:45.255Z,11.80
2019-03-04T06:30:22.585Z,11.90
2019-03-04T06:32:51.023Z,11.80
2019-03-04T06:35:19.527Z,11.90
2019-03-04T06:37:47.974Z,11.80
2019-03-04T06:40:17.827Z,11.90
2019-03-04T06:42:46.266Z,11.90
2019-03-04T06:45:16.036Z,11.90
2019-03-04T06:47:44.586Z,11.90
2019-03-04T06:50:47.623Z,12.00
2019-03-04T06:53:35.716Z,12.00
2019-03-04T06:56:25.544Z,12.00
2019-03-04T06:59:02.675Z,12.00
2019-03-04T07:01:43.047Z,12.00
2019-03-04T07:04:32.850Z,12.10
2019-03-04T07:07:01.301Z,12.10
2019-03-04T07:09:29.730Z,12.20
2019-03-04T07:11:58.289Z,12.20
2019-03-04T07:14:26.756Z,12.10
2019-03-04T07:16:55.231Z,10.60
2019-03-04T07:19:23.639Z,7.90
2019-03-04T07:21:52.054Z,7.50
2019-03-04T07:24:20.487Z,7.30
2019-03-04T07:26:48.923Z,7.40
2019-03-04T07:29:17.419Z,7.40
2019-03-04T07:31:45.855Z,7.30
2019-03-04T07:34:14.297Z,7.30
2019-03-04T07:36:42.802Z,7.30
2019-03-04T07:39:12.374Z,7.30
2019-03-04T07:41:40.967Z,7.20
2019-03-04T07:44:09.462Z,7.20
2019-03-04T07:46:37.899Z,7.30
2019-03-04T07:49:06.391Z,7.20
2019-03-04T07:51:34.903Z,7.10
2019-03-04T07:54:03.388Z,7.10
2019-03-04T07:56:31.974Z,7.00
2019-03-04T07:59:00.418Z,7.00
2019-03-04T08:01:28.846Z,7.10
2019-03-04T08:03:57.375Z,7.20
2019-03-04T08:06:25.943Z,7.30
2019-03-04T08:09:12.401Z,7.40
2019-03-04T08:12:03.498Z,7.60
2019-03-04T08:14:31.932Z,7.80
2019-03-04T08:17:00.355Z,7.90
2019-03-04T08:19:28.777Z,8.00
2019-03-04T08:21:57.232Z,8.00
2019-03-04T08:24:25.815Z,8.00
2019-03-04T08:26:54.239Z,8.00
2019-03-04T08:29:22.663Z,8.00
2019-03-04T08:31:51.083Z,8.10
2019-03-04T08:34:19.518Z,8.30
2019-03-04T08:36:48.034Z,8.40
2019-03-04T08:39:16.473Z,8.40
2019-03-04T08:41:44.892Z,8.40
2019-03-04T08:44:13.392Z,8.40
2019-03-04T08:46:41.906Z,8.50
2019-03-04T08:49:10.374Z,8.70
2019-03-04T08:51:38.814Z,8.90
2019-03-04T08:54:07.239Z,9.00
2019-03-04T08:56:35.672Z,9.00
2019-03-04T08:59:04.257Z,9.00
2019-03-04T09:01:32.739Z,9.00
2019-03-04T09:04:01.168Z,8.90
2019-03-04T09:06:29.598Z,8.80
2019-03-04T09:08:58.032Z,8.90
2019-03-04T09:11:26.501Z,9.00
2019-03-04T09:13:54.919Z,8.90
2019-03-04T09:16:23.420Z,9.00
2019-03-04T09:18:52.006Z,9.00
2019-03-04T09:21:20.434Z,9.10
2019-03-04T09:23:50.064Z,9.20
2019-03-04T09:26:18.549Z,9.30
2019-03-04T09:28:47.024Z,9.50
2019-03-04T09:31:15.460Z,9.60
2019-03-04T09:33:43.981Z,9.70
2019-03-04T09:36:12.385Z,9.90
2019-03-04T09:38:40.815Z,10.10
2019-03-04T09:41:09.255Z,10.20
2019-03-04T09:43:37.831Z,10.40
2019-03-04T09:46:06.451Z,10.50
2019-03-04T09:48:34.973Z,10.60
2019-03-04T09:51:03.451Z,10.60
2019-03-04T09:53:39.060Z,10.80
2019-03-04T09:56:02.082Z,10.70
2019-03-04T09:58:30.515Z,10.70
2019-03-04T10:01:02.025Z,10.90
2019-03-04T10:03:42.540Z,10.80
2019-03-04T10:06:26.079Z,10.90
2019-03-04T10:09:20.105Z,11.20
2019-03-04T10:12:13.975Z,11.30
2019-03-04T10:15:20.729Z,11.10
2019-03-04T10:18:21.194Z,11.00
2019-03-04T10:21:04.855Z,11.00
2019-03-04T10:23:45.084Z,10.90
2019-03-04T10:26:32.966Z,10.60
2019-03-04T10:29:28.290Z,10.70
2019-03-04T10:32:20.964Z,10.60
2019-03-04T10:34:58.281Z,10.60
2019-03-04T10:37:35.711Z,10.70
2019-03-04T10:40:24.007Z,10.70
2019-03-04T10:43:01.243Z,10.20
2019-03-04T10:45:41.647Z,10.50
2019-03-04T10:48:10.062Z,10.30
2019-03-04T10:50:38.535Z,10.00
2019-03-04T10:53:07.047Z,9.80
2019-03-04T10:55:42.059Z,9.50
2019-03-04T10:58:05.658Z,9.40
2019-03-04T11:00:34.436Z,9.30
2019-03-04T11:03:02.850Z,9.30
2019-03-04T11:05:31.338Z,9.30
2019-03-04T11:07:59.838Z,9.60
2019-03-04T11:10:28.325Z,9.70
2019-03-04T11:12:56.731Z,9.90
2019-03-04T11:15:26.200Z,9.80
2019-03-04T11:17:54.729Z,9.80
2019-03-04T11:20:23.312Z,9.60
2019-03-04T11:22:51.740Z,9.40
2019-03-04T11:25:20.400Z,9.30
2019-03-04T11:27:48.965Z,9.30
2019-03-04T11:30:22.998Z,9.30
2019-03-04T11:32:52.059Z,9.40
2019-03-04T11:35:20.491Z,9.30
2019-03-04T11:37:48.923Z,9.30
2019-03-04T11:40:25.401Z,9.20
2019-03-04T11:42:53.899Z,9.10
2019-03-04T11:45:22.316Z,9.10
2019-03-04T11:47:50.748Z,9.00
2019-03-04T11:50:19.191Z,9.00
2019-03-04T11:52:47.624Z,8.90
2019-03-04T11:55:31.383Z,8.90
2019-03-04T11:57:59.791Z,8.80
2019-03-04T12:00:47.046Z,8.90
2019-03-04T12:03:15.509Z,9.00
2019-03-04T12:05:43.937Z,9.40
2019-03-04T12:08:12.369Z,9.60
2019-03-04T12:10:40.870Z,9.60
2019-03-04T12:13:09.303Z,9.30
2019-03-04T12:15:38.180Z,9.00
2019-03-04T12:18:06.684Z,8.70
2019-03-04T12:20:35.164Z,8.40
2019-03-04T12:23:03.670Z,8.30
2019-03-04T12:25:32.118Z,8.20
2019-03-04T12:28:00.617Z,7.90
2019-03-04T12:30:29.114Z,7.50
2019-03-04T12:32:57.551Z,7.10
2019-03-04T12:35:26.067Z,6.60
2019-03-04T12:37:54.494Z,6.50
2019-03-04T12:40:23.775Z,6.40
2019-03-04T12:42:52.195Z,6.20
2019-03-04T12:45:33.710Z,6.10
2019-03-04T12:47:54.642Z,6.10
2019-03-04T12:50:26.915Z,6.10
2019-03-04T12:52:56.073Z,6.20
2019-03-04T12:55:24.585Z,6.20
2019-03-04T12:57:53.016Z,6.20
2019-03-04T13:00:29.402Z,6.30
2019-03-04T13:02:58.281Z,6.20
2019-03-04T13:05:26.822Z,6.40
2019-03-04T13:07:55.297Z,6.70
2019-03-04T13:10:23.848Z,7.20
2019-03-04T13:12:52.452Z,7.30
2019-03-04T13:15:31.798Z,7.20
2019-03-04T13:18:00.239Z,7.10
2019-03-04T13:20:30.178Z,7.20
2019-03-04T13:22:58.615Z,7.10
2019-03-04T13:25:27.054Z,7.10
2019-03-04T13:27:55.498Z,7.00
2019-03-04T13:30:38.060Z,7.00
2019-03-04T13:33:06.740Z,7.00
2019-03-04T13:35:40.692Z,7.20
2019-03-04T13:38:09.112Z,7.10
2019-03-04T13:40:37.626Z,7.10
2019-03-04T13:43:06.135Z,7.00
2019-03-04T13:45:34.965Z,7.00
2019-03-04T13:48:03.531Z,7.00
2019-03-04T13:50:33.720Z,7.10
2019-03-04T13:53:02.284Z,7.00
2019-03-04T13:55:30.736Z,7.10
2019-03-04T13:57:59.164Z,7.20
2019-03-04T14:00:39.333Z,7.20
2019-03-04T14:03:07.810Z,7.20
2019-03-04T14:05:36.242Z,7.20
2019-03-04T14:08:04.890Z,7.10
2019-03-04T14:10:44.005Z,7.10
2019-03-04T14:13:12.686Z,7.10
2019-03-04T14:15:55.951Z,7.20
2019-03-04T14:18:24.375Z,7.20
2019-03-04T14:20:52.891Z,7.20
2019-03-04T14:23:21.316Z,7.20
2019-03-04T14:25:49.951Z,7.20
2019-03-04T14:28:18.597Z,7.20
2019-03-04T14:30:47.171Z,7.30
2019-03-04T14:33:15.590Z,7.20
2019-03-04T14:35:44.275Z,7.30
2019-03-04T14:38:12.783Z,7.30
2019-03-04T14:40:41.200Z,7.20
2019-03-04T14:43:09.635Z,7.20
2019-03-04T14:45:38.285Z,7.20
2019-03-04T14:48:06.883Z,7.30
2019-03-04T14:50:35.367Z,7.30
2019-03-04T14:53:03.790Z,7.40
2019-03-04T14:55:35.029Z,7.50
2019-03-04T14:58:03.523Z,7.50
2019-03-04T15:00:37.324Z,7.40
2019-03-04T15:03:05.913Z,7.30
2019-03-04T15:05:34.736Z,7.40
2019-03-04T15:08:03.516Z,7.70
2019-03-04T15:10:32.189Z,7.80
2019-03-04T15:13:00.758Z,7.90
2019-03-04T15:15:33.951Z,7.90
2019-03-04T15:18:02.575Z,7.90
2019-03-04T15:20:33.456Z,7.80
2019-03-04T15:23:02.142Z,7.80
2019-03-04T15:25:38.736Z,7.70
2019-03-04T15:28:15.982Z,7.50
2019-03-04T15:30:49.711Z,7.50
2019-03-04T15:33:18.900Z,7.40
2019-03-04T15:35:47.478Z,7.40
2019-03-04T15:38:16.000Z,7.30
2019-03-04T15:40:44.503Z,7.30
2019-03-04T15:43:13.009Z,7.40
2019-03-04T15:45:43.122Z,7.40
2019-03-04T15:48:11.993Z,7.40
2019-03-04T15:50:40.566Z,7.50
2019-03-04T15:53:09.093Z,7.60
2019-03-04T15:55:37.673Z,7.70
2019-03-04T15:58:06.288Z,7.60
2019-03-04T16:00:34.975Z,7.50
2019-03-04T16:03:03.942Z,7.60
2019-03-04T16:05:32.556Z,7.60
2019-03-04T16:08:07.713Z,7.50
2019-03-04T16:10:34.850Z,7.50
2019-03-04T16:13:03.463Z,7.50
2019-03-04T16:15:32.335Z,7.40
2019-03-04T16:18:00.927Z,7.50
2019-03-04T16:20:29.422Z,7.40
2019-03-04T16:22:58.080Z,7.30
2019-03-04T16:25:26.791Z,7.30
2019-03-04T16:28:04.527Z,7.30
2019-03-04T16:30:33.023Z,7.50
2019-03-04T16:33:01.503Z,7.50
2019-03-04T16:35:30.127Z,7.50
2019-03-04T16:37:58.692Z,7.30
2019-03-04T16:40:27.295Z,7.20
2019-03-04T16:42:55.714Z,7.20
2019-03-04T16:45:24.487Z,7.20
2019-03-04T16:47:53.017Z,7.20
2019-03-04T16:50:24.875Z,7.20
2019-03-04T16:52:56.230Z,7.10
2019-03-04T16:55:24.790Z,7.20
2019-03-04T16:57:53.388Z,7.10
2019-03-04T17:00:22.304Z,7.10
2019-03-04T17:02:51.012Z,7.10
2019-03-04T17:05:20.313Z,7.00
2019-03-04T17:07:50.840Z,7.00
2019-03-04T17:10:23.838Z,7.00
2019-03-04T17:12:54.414Z,7.00
2019-03-04T17:15:23.766Z,7.00
2019-03-04T17:17:52.291Z,7.00
2019-03-04T17:20:20.885Z,7.00
2019-03-04T17:22:49.446Z,7.00
2019-03-04T17:25:20.669Z,6.90
2019-03-04T17:27:49.349Z,6.80
2019-03-04T17:30:19.398Z,6.80
2019-03-04T17:32:48.170Z,6.80
2019-03-04T17:35:23.120Z,6.70
2019-03-04T17:37:51.892Z,6.60
2019-03-04T17:40:23.126Z,6.60
2019-03-04T17:42:52.618Z,6.60
2019-03-04T17:45:24.301Z,6.70
2019-03-04T17:47:53.414Z,6.60
2019-03-04T17:50:39.853Z,6.70
2019-03-04T17:53:10.234Z,6.70
2019-03-04T17:55:38.666Z,6.60
2019-03-04T17:58:07.219Z,6.60
2019-03-04T18:00:37.663Z,6.70
2019-03-04T18:03:06.368Z,6.60
2019-03-04T18:05:35.015Z,6.60
2019-03-04T18:08:03.498Z,6.60
2019-03-04T18:10:32.068Z,6.60
2019-03-04T18:13:03.063Z,6.60
2019-03-04T18:15:36.887Z,6.50
2019-03-04T18:18:05.455Z,6.40
2019-03-04T18:20:34.821Z,6.40
2019-03-04T18:23:03.566Z,6.30
2019-03-04T18:25:38.052Z,6.40
2019-03-04T18:28:36.688Z,6.40
2019-03-04T18:31:30.857Z,6.40
2019-03-04T18:34:22.176Z,6.50
2019-03-04T18:37:08.547Z,6.60
2019-03-04T18:39:55.386Z,6.60
2019-03-04T18:42:38.773Z,6.60
2019-03-04T18:45:16.879Z,6.60
2019-03-04T18:47:54.620Z,6.60
2019-03-04T18:50:23.294Z,6.50
2019-03-04T18:52:51.825Z,6.50
2019-03-04T18:55:20.322Z,6.40
2019-03-04T18:57:48.774Z,6.40
2019-03-04T19:00:20.263Z,6.40
2019-03-04T19:02:48.772Z,6.40
2019-03-04T19:05:17.216Z,6.30
2019-03-04T19:07:45.675Z,6.30
2019-03-04T19:10:14.336Z,6.30
2019-03-04T19:12:42.784Z,6.20
2019-03-04T19:15:11.983Z,6.10
2019-03-04T19:17:40.424Z,6.10
2019-03-04T19:20:19.678Z,6.10
2019-03-04T19:22:48.197Z,6.00
2019-03-04T19:25:16.619Z,6.00
2019-03-04T19:27:45.199Z,5.90
2019-03-04T19:30:15.169Z,5.90
2019-03-04T19:32:43.649Z,5.80
2019-03-04T19:35:15.595Z,5.80
2019-03-04T19:37:44.019Z,5.80
2019-03-04T19:40:14.519Z,5.90
2019-03-04T19:42:43.105Z,5.90
2019-03-04T19:45:22.504Z,5.80
2019-03-04T19:47:51.007Z,5.80
2019-03-04T19:50:19.438Z,5.80
2019-03-04T19:52:48.018Z,5.80
2019-03-04T19:55:17.499Z,5.70
2019-03-04T19:57:46.379Z,5.80
2019-03-04T20:00:24.881Z,5.70
2019-03-04T20:02:53.883Z,5.70
2019-03-04T20:05:23.716Z,5.70
2019-03-04T20:07:52.308Z,5.70
2019-03-04T20:10:21.342Z,5.70
2019-03-04T20:12:49.894Z,5.70
2019-03-04T20:15:25.658Z,5.80
2019-03-04T20:17:56.466Z,5.80
2019-03-04T20:20:24.830Z,5.70
2019-03-04T20:22:53.494Z,5.70
2019-03-04T20:25:22.465Z,5.80
2019-03-04T20:27:51.042Z,5.80
2019-03-04T20:30:21.227Z,5.90
2019-03-04T20:32:49.718Z,5.80
2019-03-04T20:35:18.913Z,6.00
2019-03-04T20:37:59.156Z,6.00
2019-03-04T20:40:27.675Z,6.10
2019-03-04T20:42:56.169Z,6.10
2019-03-04T20:45:25.323Z,6.00
2019-03-04T20:47:53.873Z,6.00
2019-03-04T20:50:25.948Z,6.00
2019-03-04T20:52:54.608Z,6.00
2019-03-04T20:55:23.487Z,6.00
2019-03-04T20:57:52.266Z,6.00
2019-03-04T21:00:25.250Z,6.00
2019-03-04T21:02:53.798Z,6.00
2019-03-04T21:05:22.602Z,6.00
2019-03-04T21:07:51.116Z,5.90
2019-03-04T21:10:19.639Z,6.00
2019-03-04T21:12:49.988Z,6.00
2019-03-04T21:15:19.739Z,6.00
2019-03-04T21:17:48.421Z,6.00
2019-03-04T21:20:18.218Z,6.00
2019-03-04T21:22:47.423Z,6.00
2019-03-04T21:25:48.373Z,6.00
2019-03-04T21:28:31.919Z,6.10
2019-03-04T21:31:05.950Z,6.20
2019-03-04T21:34:00.398Z,6.20
2019-03-04T21:36:43.639Z,6.20
2019-03-04T21:39:14.725Z,6.20
2019-03-04T21:41:55.330Z,6.20
2019-03-04T21:44:52.686Z,6.30
2019-03-04T21:47:27.191Z,6.30
2019-03-04T21:49:55.762Z,6.40
2019-03-04T21:52:36.147Z,6.40
2019-03-04T21:55:07.716Z,6.40
2019-03-04T21:57:39.350Z,6.40
2019-03-04T22:00:10.852Z,6.50
2019-03-04T22:02:48.235Z,6.40
2019-03-04T22:05:18.311Z,6.30
2019-03-04T22:07:47.514Z,6.30
2019-03-04T22:10:16.446Z,6.30
2019-03-04T22:12:45.899Z,6.40
2019-03-04T22:15:15.514Z,6.40
2019-03-04T22:17:44.087Z,6.40
2019-03-04T22:20:15.055Z,6.40
2019-03-04T22:22:43.538Z,6.40
2019-03-04T22:25:13.542Z,6.40
2019-03-04T22:27:42.121Z,6.40
2019-03-04T22:30:16.464Z,6.50
2019-03-04T22:32:44.952Z,6.50
2019-03-04T22:35:17.137Z,6.40
2019-03-04T22:37:45.738Z,6.40
2019-03-04T22:40:19.991Z,6.20
2019-03-04T22:42:48.555Z,5.90
2019-03-04T22:45:19.381Z,5.80
2019-03-04T22:47:49.462Z,5.80
2019-03-04T22:50:22.506Z,5.80
2019-03-04T22:52:51.068Z,5.70
2019-03-04T22:55:28.307Z,5.70
2019-03-04T22:57:56.711Z,5.70
2019-03-04T23:00:53.923Z,5.70
2019-03-04T23:03:24.071Z,5.60
2019-03-04T23:05:58.388Z,5.50
2019-03-04T23:08:26.872Z,5.50
2019-03-04T23:10:55.371Z,5.40
2019-03-04T23:13:45.167Z,5.40
2019-03-04T23:16:17.255Z,5.40
2019-03-04T23:18:45.670Z,5.30
2019-03-04T23:21:14.171Z,5.30
2019-03-04T23:23:42.689Z,5.40
2019-03-04T23:26:11.106Z,5.40
2019-03-04T23:28:39.530Z,5.50
2019-03-04T23:31:07.943Z,5.50
2019-03-04T23:33:36.379Z,5.50
2019-03-04T23:36:04.871Z,5.60
2019-03-04T23:38:33.291Z,5.50
2019-03-04T23:41:01.738Z,5.50
2019-03-04T23:43:30.148Z,5.50
2019-03-04T23:45:58.656Z,5.50
2019-03-04T23:48:27.194Z,5.50
2019-03-04T23:50:55.778Z,5.60
2019-03-04T23:53:24.194Z,5.60
2019-03-04T23:55:52.626Z,5.70
2019-03-04T23:58:21.037Z,5.80
